Time;durP1;ratioP1;P1;durP2;ratioP2;P2;SDS_P1;SDS_P2;PMS_P1;PMS_P2;Temp;Humidity;BMP_temperature;BMP_pressure;BME280_temperature;BME280_humidity;BME280_pressure;Samples;Min_cycle;Max_cycle;Signal;HPM_P1;HPM_P2
2021/11/08 00:00:40;;;;;;;4.50;2.65;;;;;;;3.84;100.00;93355.69;2114996;28;20133;-84
2021/11/08 00:01:43;;;;;;;7.13;2.90;;;;;;;3.78;100.00;93353.38;2107030;28;20055;-83
2021/11/08 00:02:45;;;;;;;6.32;2.55;;;;;;;3.76;100.00;93347.69;2110870;28;20507;-83
2021/11/08 00:03:48;;;;;;;4.40;2.78;;;;;;;3.76;100.00;93345.03;2111469;27;20051;-85
2021/11/08 00:04:50;;;;;;;7.60;2.88;;;;;;;3.97;100.00;93349.72;2102657;28;20035;-84
2021/11/08 00:05:52;;;;;;;7.03;2.63;;;;;;;3.89;100.00;93350.81;2099854;27;20120;-85
2021/11/08 00:06:55;;;;;;;7.35;2.67;;;;;;;3.97;100.00;93349.72;2111075;28;20736;-83
2021/11/08 00:08:02;;;;;;;6.53;2.90;;;;;;;3.87;100.00;93350.44;2104761;27;20036;-83
2021/11/08 00:09:05;;;;;;;4.38;2.33;;;;;;;3.96;100.00;93345.56;2114939;27;20032;-85
2021/11/08 00:10:08;;;;;;;5.40;2.65;;;;;;;3.94;100.00;93349.69;2115739;27;20020;-86
2021/11/08 00:11:10;;;;;;;9.30;2.63;;;;;;;4.13;100.00;93346.06;2123371;27;20065;-83
2021/11/08 00:12:13;;;;;;;3.85;2.45;;;;;;;3.98;100.00;93345.19;2122565;27;20024;-84
2021/11/08 00:13:15;;;;;;;5.70;2.60;;;;;;;3.96;100.00;93350.13;2112318;28;20056;-83
2021/11/08 00:14:19;;;;;;;4.75;2.70;;;;;;;3.95;100.00;93349.34;2119155;27;20027;-84
2021/11/08 00:15:26;;;;;;;3.25;2.55;;;;;;;3.90;100.00;93352.31;2117923;27;20094;-86
2021/11/08 00:17:59;;;;;;;5.22;2.92;;;;;;;3.89;100.00;93350.81;2122131;27;20324;-83
2021/11/08 00:20:06;;;;;;;5.28;2.35;;;;;;;4.06;100.00;93356.59;2103924;27;20031;-85
2021/11/08 00:21:07;;;;;;;8.73;2.20;;;;;;;3.96;100.00;93358.03;2112431;28;20518;-86
2021/11/08 00:22:08;;;;;;;5.25;2.63;;;;;;;3.93;100.00;93358.78;2113105;28;20032;-85
2021/11/08 00:23:10;;;;;;;5.78;3.53;;;;;;;3.82;100.00;93358.69;2122385;27;20110;-81
2021/11/08 00:24:14;;;;;;;7.45;2.83;;;;;;;3.91;100.00;93353.84;2113482;27;20028;-85
2021/11/08 00:25:15;;;;;;;7.85;3.15;;;;;;;3.97;100.00;93362.19;2109075;28;20046;-83
2021/11/08 00:26:16;;;;;;;10.85;2.80;;;;;;;3.98;100.00;93361.81;2114392;28;20161;-84
2021/11/08 00:27:18;;;;;;;5.32;2.38;;;;;;;4.20;100.00;93351.38;2106308;28;20020;-83
2021/11/08 00:28:19;;;;;;;7.50;2.90;;;;;;;4.18;100.00;93354.41;2113899;27;20023;-84
2021/11/08 00:29:20;;;;;;;4.13;2.60;;;;;;;4.01;100.00;93358.44;2114593;28;20043;-85
2021/11/08 00:30:23;;;;;;;5.82;2.38;;;;;;;4.06;100.00;93352.06;2104221;28;20020;-84
2021/11/08 00:31:25;;;;;;;4.32;2.30;;;;;;;4.17;100.00;93352.13;2105808;28;20179;-84
2021/11/08 00:32:26;;;;;;;7.75;2.40;;;;;;;4.21;100.00;93361.59;2103265;28;20028;-85
2021/11/08 00:33:26;;;;;;;7.32;3.30;;;;;;;4.23;100.00;93353.31;2115702;27;20508;-85
2021/11/08 00:34:28;;;;;;;11.05;3.03;;;;;;;4.23;100.00;93356.69;2106971;28;20044;-84
2021/11/08 00:35:29;;;;;;;11.20;2.95;;;;;;;4.10;100.00;93352.84;2097856;28;20024;-84
2021/11/08 00:36:30;;;;;;;6.00;2.53;;;;;;;3.95;100.00;93357.28;2113380;28;20472;-84
2021/11/08 00:37:31;;;;;;;7.07;2.88;;;;;;;3.89;100.00;93356.09;2120723;27;20023;-84
2021/11/08 00:38:33;;;;;;;11.15;3.60;;;;;;;3.92;100.00;93354.63;2122689;27;20349;-86
2021/11/08 00:39:34;;;;;;;12.57;3.10;;;;;;;3.88;100.00;93353.81;2122760;27;20023;-83
2021/11/08 00:40:35;;;;;;;8.23;2.90;;;;;;;3.86;100.00;93362.09;2114689;28;20099;-84
2021/11/08 00:41:37;;;;;;;9.95;2.72;;;;;;;3.78;100.00;93352.63;2112118;27;20414;-81
2021/11/08 00:42:38;;;;;;;4.97;2.50;;;;;;;3.67;100.00;93352.53;2119548;27;20023;-85
2021/11/08 00:43:39;;;;;;;7.65;2.67;;;;;;;3.73;100.00;93352.94;2111272;28;20114;-83
2021/11/08 00:44:40;;;;;;;5.35;2.50;;;;;;;3.87;100.00;93358.34;2115987;27;20024;-85
2021/11/08 00:45:43;;;;;;;9.95;3.10;;;;;;;3.75;100.00;93353.34;2114536;28;20871;-84
2021/11/08 00:46:44;;;;;;;7.55;2.75;;;;;;;3.69;100.00;93352.19;2114419;28;20049;-85
2021/11/08 00:47:45;;;;;;;8.20;2.92;;;;;;;3.74;100.00;93349.94;2113404;28;20020;-84
2021/11/08 00:48:46;;;;;;;7.95;2.75;;;;;;;3.72;100.00;93354.81;2117932;27;20027;-85
2021/11/08 00:49:48;;;;;;;9.57;3.25;;;;;;;3.76;100.00;93358.25;2123008;27;20022;-85
2021/11/08 00:50:50;;;;;;;6.38;2.53;;;;;;;3.76;100.00;93363.56;2112811;27;20110;-84
2021/11/08 00:51:51;;;;;;;5.63;2.33;;;;;;;3.90;100.00;93360.25;2114246;28;20024;-84
2021/11/08 00:52:53;;;;;;;12.73;2.95;;;;;;;3.94;100.00;93362.94;2114253;27;20055;-85
2021/11/08 00:53:54;;;;;;;4.82;2.35;;;;;;;3.85;100.00;93362.47;2118786;27;20034;-85
2021/11/08 00:54:58;;;;;;;10.63;3.67;;;;;;;3.83;100.00;93354.94;2118618;27;20024;-85
2021/11/08 00:56:02;;;;;;;11.55;3.17;;;;;;;3.66;100.00;93355.53;2120755;27;20050;-82
2021/11/08 00:57:06;;;;;;;7.85;2.90;;;;;;;3.66;100.00;93361.59;2112338;28;20016;-82
2021/11/08 00:58:14;;;;;;;11.10;3.10;;;;;;;3.62;100.00;93367.97;2112658;27;20425;-85
2021/11/08 00:59:16;;;;;;;7.30;2.90;;;;;;;3.53;100.00;93371.69;2122886;27;20019;-82
2021/11/08 01:00:19;;;;;;;11.85;3.20;;;;;;;3.63;100.00;93366.84;2109847;28;20062;-83
2021/11/08 01:01:21;;;;;;;10.98;2.83;;;;;;;3.52;100.00;93356.19;2108868;28;20085;-82
2021/11/08 01:02:25;;;;;;;7.72;2.80;;;;;;;3.49;100.00;93355.03;2112137;27;20472;-84
2021/11/08 01:03:26;;;;;;;10.77;2.75;;;;;;;3.44;100.00;93354.59;2110657;27;20508;-87
2021/11/08 01:04:28;;;;;;;10.88;2.92;;;;;;;3.50;100.00;93361.81;2114299;28;20098;-86
2021/11/08 01:05:29;;;;;;;9.88;3.20;;;;;;;3.41;100.00;93358.72;2114425;28;20011;-81
2021/11/08 01:06:30;;;;;;;13.95;3.67;;;;;;;3.52;100.00;93366.75;2110003;28;20031;-82
2021/11/08 01:07:31;;;;;;;11.45;2.83;;;;;;;3.45;100.00;93367.44;2111199;28;20058;-84
2021/11/08 01:08:32;;;;;;;11.02;4.00;;;;;;;3.44;100.00;93358.00;2104537;28;20123;-85
2021/11/08 01:09:33;;;;;;;11.18;3.00;;;;;;;3.40;100.00;93367.03;2093227;28;20126;-83
2021/11/08 01:10:34;;;;;;;9.90;3.50;;;;;;;3.40;100.00;93362.50;2097506;28;20557;-86
2021/11/08 01:11:35;;;;;;;9.95;3.08;;;;;;;3.31;100.00;93371.84;2110078;28;20106;-83
2021/11/08 01:12:37;;;;;;;13.55;3.00;;;;;;;3.35;100.00;93367.34;2101739;28;20452;-84
2021/11/08 01:13:39;;;;;;;9.95;2.80;;;;;;;3.22;100.00;93362.31;2097126;28;20110;-85
2021/11/08 01:14:41;;;;;;;7.60;2.90;;;;;;;3.21;100.00;93360.81;2101492;28;20047;-84
2021/11/08 01:15:42;;;;;;;9.65;3.53;;;;;;;3.38;100.00;93363.97;2102570;28;20028;-84
2021/11/08 01:16:46;;;;;;;9.68;3.10;;;;;;;3.28;100.00;93365.41;2099642;28;20500;-85
2021/11/08 01:17:47;;;;;;;8.00;2.80;;;;;;;3.18;100.00;93361.53;2097798;28;20032;-82
2021/11/08 01:18:52;;;;;;;6.57;2.90;;;;;;;3.11;100.00;93364.09;2105375;28;20083;-85
2021/11/08 01:19:53;;;;;;;10.52;2.70;;;;;;;3.03;100.00;93363.28;2107562;28;20050;-85
2021/11/08 01:20:54;;;;;;;8.80;3.10;;;;;;;3.02;100.00;93367.00;2088852;28;20063;-86
2021/11/08 01:22:05;;;;;;;8.52;3.15;;;;;;;3.00;100.00;93356.06;2095443;28;20082;-83
2021/11/08 01:23:06;;;;;;;11.75;3.20;;;;;;;2.86;100.00;93361.19;2096695;28;20016;-83
2021/11/08 01:24:08;;;;;;;15.95;3.20;;;;;;;2.91;100.00;93365.41;2099472;28;20019;-82
2021/11/08 01:25:10;;;;;;;7.68;3.33;;;;;;;2.89;100.00;93367.63;2095719;28;20017;-86
2021/11/08 01:26:13;;;;;;;6.00;2.63;;;;;;;2.90;100.00;93372.56;2089309;28;20800;-86
2021/11/08 01:27:14;;;;;;;8.85;3.10;;;;;;;2.90;100.00;93369.16;2096891;28;20016;-86
2021/11/08 01:28:15;;;;;;;10.80;3.08;;;;;;;2.87;100.00;93369.88;2102682;28;20048;-83
2021/11/08 01:29:16;;;;;;;7.57;2.45;;;;;;;2.85;100.00;93370.22;2101373;28;20114;-84
2021/11/08 01:30:19;;;;;;;8.20;2.58;;;;;;;2.85;100.00;93377.38;2103604;28;20039;-83
2021/11/08 01:31:22;;;;;;;7.05;2.50;;;;;;;2.81;100.00;93374.72;2106092;28;20452;-84
2021/11/08 01:32:23;;;;;;;8.52;2.40;;;;;;;2.80;100.00;93380.34;2105956;28;20111;-84
2021/11/08 01:33:25;;;;;;;6.95;2.53;;;;;;;2.77;100.00;93379.97;2104092;28;20061;-84
2021/11/08 01:34:30;;;;;;;4.80;2.55;;;;;;;2.72;100.00;93377.63;2105582;28;20062;-84
2021/11/08 01:35:44;;;;;;;4.90;2.42;;;;;;;2.64;100.00;93381.31;2109919;27;20016;-85
2021/11/08 01:36:51;;;;;;;7.68;2.88;;;;;;;2.52;100.00;93378.88;2118385;27;20024;-85
2021/11/08 01:38:02;;;;;;;6.30;2.42;;;;;;;2.44;100.00;93379.91;2100878;28;20032;-83
2021/11/08 01:39:17;;;;;;;7.03;2.63;;;;;;;2.48;100.00;93383.34;2102214;28;20027;-83
2021/11/08 01:40:18;;;;;;;7.53;2.80;;;;;;;2.28;100.00;93382.69;2111283;28;20988;-85
2021/11/08 01:41:23;;;;;;;5.68;2.60;;;;;;;2.34;100.00;93388.44;2113931;28;20023;-86
2021/11/08 01:42:25;;;;;;;7.50;2.47;;;;;;;2.33;100.00;93387.69;2111848;28;20059;-83
2021/11/08 01:43:26;;;;;;;5.07;2.13;;;;;;;2.18;100.00;93393.88;2103933;28;20016;-84
2021/11/08 01:44:28;;;;;;;8.27;2.47;;;;;;;2.15;100.00;93389.31;2102180;28;20036;-86
2021/11/08 01:45:30;;;;;;;10.52;2.50;;;;;;;2.14;100.00;93388.53;2102119;28;20015;-84
2021/11/08 01:46:31;;;;;;;4.88;2.13;;;;;;;2.07;100.00;93391.09;2101489;28;20487;-82
2021/11/08 01:47:32;;;;;;;3.92;2.30;;;;;;;2.06;100.00;93386.16;2103542;28;20016;-85
2021/11/08 01:48:33;;;;;;;11.18;2.72;;;;;;;2.03;100.00;93387.66;2097713;28;20024;-85
2021/11/08 01:49:36;;;;;;;6.03;2.60;;;;;;;1.96;100.00;93383.00;2085481;28;20025;-82
2021/11/08 01:50:39;;;;;;;4.35;2.35;;;;;;;1.87;100.00;93385.13;2096106;28;20491;-85
2021/11/08 01:51:39;;;;;;;6.72;2.03;;;;;;;1.87;100.00;93390.41;2099563;28;20028;-84
2021/11/08 01:52:40;;;;;;;6.32;2.28;;;;;;;1.81;100.00;93391.06;2109553;28;20047;-83
2021/11/08 01:53:43;;;;;;;6.53;2.55;;;;;;;1.78;100.00;93392.53;2111334;28;20102;-86
2021/11/08 01:54:44;;;;;;;9.75;2.40;;;;;;;1.79;100.00;93390.66;2109776;28;20100;-86
2021/11/08 01:55:45;;;;;;;7.05;1.98;;;;;;;1.79;100.00;93398.56;2104224;28;20372;-84
2021/11/08 01:56:47;;;;;;;5.25;2.03;;;;;;;1.82;100.00;93395.97;2097271;28;20028;-85
2021/11/08 01:57:49;;;;;;;6.85;2.35;;;;;;;1.86;100.00;93399.44;2103375;28;20024;-84
2021/11/08 01:58:50;;;;;;;6.22;2.70;;;;;;;1.89;100.00;93403.22;2104453;28;20020;-83
2021/11/08 01:59:51;;;;;;;6.15;2.42;;;;;;;1.97;100.00;93410.88;2102479;28;20040;-83
2021/11/08 02:00:54;;;;;;;5.15;2.20;;;;;;;2.03;100.00;93408.72;2109897;28;20563;-82
2021/11/08 02:01:56;;;;;;;8.43;2.47;;;;;;;2.01;100.00;93409.06;2103102;28;20054;-83
2021/11/08 02:02:57;;;;;;;8.02;2.67;;;;;;;2.04;100.00;93406.84;2113482;28;20019;-82
2021/11/08 02:04:00;;;;;;;5.28;2.33;;;;;;;2.08;100.00;93412.94;2119656;27;20033;-84
2021/11/08 02:05:03;;;;;;;8.60;2.70;;;;;;;2.09;100.00;93411.81;2111203;28;20023;-86
2021/11/08 02:06:04;;;;;;;5.47;2.60;;;;;;;2.20;100.00;93415.38;2107565;28;20026;-82
2021/11/08 02:08:29;;;;;;;;;;;;;;;2.07;100.00;93417.47;2144952;27;20113;-84
2021/11/08 02:09:30;;;;;;;5.60;2.10;;;;;;;2.05;100.00;93408.38;2135954;27;19954;-83
2021/11/08 02:10:32;;;;;;;6.32;2.50;;;;;;;2.07;100.00;93417.47;2120711;28;20549;-84
2021/11/08 02:11:35;;;;;;;4.78;2.30;;;;;;;2.09;100.00;93409.19;2113207;28;20016;-84
2021/11/08 02:12:37;;;;;;;6.45;2.78;;;;;;;1.97;100.00;93412.75;2119401;27;20057;-84
2021/11/08 02:13:39;;;;;;;12.85;2.55;;;;;;;1.95;100.00;93415.75;2127630;27;20026;-82
2021/11/08 02:14:41;;;;;;;4.60;2.03;;;;;;;1.93;100.00;93418.00;2127598;27;20067;-84
2021/11/08 02:15:42;;;;;;;5.82;2.20;;;;;;;1.95;100.00;93421.03;2121600;27;20487;-85
2021/11/08 02:16:43;;;;;;;5.90;2.35;;;;;;;1.95;100.00;93409.75;2120676;28;20019;-84
2021/11/08 02:17:47;;;;;;;8.63;2.88;;;;;;;1.94;100.00;93401.06;2120520;27;20072;-82
2021/11/08 02:18:48;;;;;;;3.35;2.00;;;;;;;1.99;100.00;93400.75;2121349;27;20475;-85
2021/11/08 02:19:49;;;;;;;4.68;2.20;;;;;;;2.08;100.00;93405.03;2121351;28;20098;-83
2021/11/08 02:20:52;;;;;;;8.57;2.10;;;;;;;2.06;100.00;93397.47;2121395;27;20182;-83
2021/11/08 02:21:55;;;;;;;7.82;2.38;;;;;;;2.13;100.00;93400.22;2122457;27;20019;-84
2021/11/08 02:22:59;;;;;;;7.00;2.15;;;;;;;2.03;100.00;93400.06;2116935;28;20089;-84
2021/11/08 02:24:03;;;;;;;5.40;2.42;;;;;;;2.00;100.00;93398.88;2110448;28;20016;-84
2021/11/08 02:25:04;;;;;;;3.75;2.20;;;;;;;1.95;100.00;93391.28;2121338;27;20051;-82
2021/11/08 02:26:10;;;;;;;4.75;2.63;;;;;;;1.89;100.00;93397.94;2121164;27;20456;-84
2021/11/08 02:27:12;;;;;;;4.07;2.17;;;;;;;1.97;100.00;93400.34;2128276;27;20031;-84
2021/11/08 02:28:14;;;;;;;6.43;3.08;;;;;;;1.95;100.00;93393.91;2125191;27;20018;-84
2021/11/08 02:29:15;;;;;;;4.35;1.90;;;;;;;1.96;100.00;93398.06;2118649;27;20388;-82
2021/11/08 02:30:17;;;;;;;6.47;2.15;;;;;;;1.97;100.00;93397.72;2112785;28;20031;-83
2021/11/08 02:31:21;;;;;;;5.97;2.20;;;;;;;1.93;100.00;93399.56;2112951;27;20756;-83
2021/11/08 02:32:23;;;;;;;7.15;2.60;;;;;;;1.90;100.00;93402.88;2121855;27;20027;-85
2021/11/08 02:33:26;;;;;;;7.88;2.20;;;;;;;1.92;100.00;93395.38;2119591;27;20022;-83
2021/11/08 02:34:27;;;;;;;9.20;2.05;;;;;;;1.98;100.00;93391.34;2119912;28;20118;-81
2021/11/08 02:35:29;;;;;;;4.07;1.80;;;;;;;1.93;100.00;93394.28;2115448;28;20015;-84
2021/11/08 02:36:30;;;;;;;5.30;2.40;;;;;;;1.87;100.00;93392.28;2114919;28;20388;-85
2021/11/08 02:37:32;;;;;;;4.55;2.05;;;;;;;1.89;100.00;93390.84;2120967;28;20756;-84
2021/11/08 02:38:37;;;;;;;5.82;2.20;;;;;;;1.89;100.00;93387.41;2121395;27;20063;-82
2021/11/08 02:39:41;;;;;;;4.97;2.35;;;;;;;1.83;100.00;93400.13;2121240;28;20095;-84
2021/11/08 02:40:42;;;;;;;4.90;2.70;;;;;;;1.91;100.00;93387.84;2104685;28;20042;-83
2021/11/08 02:41:43;;;;;;;8.05;2.17;;;;;;;1.88;100.00;93388.53;2104510;28;20031;-83
2021/11/08 02:42:50;;;;;;;6.50;1.92;;;;;;;1.93;100.00;93388.22;2109699;28;20080;-84
2021/11/08 02:43:51;;;;;;;5.15;2.15;;;;;;;1.96;100.00;93383.00;2112206;28;20030;-84
2021/11/08 02:44:53;;;;;;;10.05;2.13;;;;;;;2.00;100.00;93388.34;2111453;28;20047;-82
2021/11/08 02:46:11;;;;;;;7.95;2.78;;;;;;;1.95;100.00;93384.13;2123288;27;20068;-84
2021/11/08 02:47:13;;;;;;;7.82;2.42;;;;;;;1.94;100.00;93373.97;2119795;28;20015;-84
2021/11/08 02:48:15;;;;;;;5.30;2.00;;;;;;;1.84;100.00;93375.28;2112730;28;20493;-84
2021/11/08 02:49:17;;;;;;;5.70;2.20;;;;;;;1.72;100.00;93368.34;2111376;28;20023;-85
2021/11/08 02:50:20;;;;;;;3.53;2.10;;;;;;;1.70;100.00;93375.09;2103959;28;20067;-83
2021/11/08 02:51:25;;;;;;;6.38;2.28;;;;;;;1.57;100.00;93369.22;2096874;28;20027;-83
2021/11/08 02:52:27;;;;;;;7.60;2.47;;;;;;;1.63;100.00;93370.47;2103181;28;20024;-84
2021/11/08 02:53:28;;;;;;;7.80;2.30;;;;;;;1.59;100.00;93369.66;2105778;27;20381;-83
2021/11/08 02:54:37;;;;;;;5.40;2.00;;;;;;;1.56;100.00;93372.22;2115307;28;20028;-82
2021/11/08 02:55:40;;;;;;;6.45;2.13;;;;;;;1.54;100.00;93363.91;2111588;28;20024;-82
2021/11/08 02:56:41;;;;;;;5.90;2.20;;;;;;;1.47;100.00;93367.94;2112938;28;20016;-84
2021/11/08 02:57:42;;;;;;;4.97;2.05;;;;;;;1.40;100.00;93375.72;2112691;28;20035;-85
2021/11/08 02:58:45;;;;;;;5.70;2.22;;;;;;;1.39;100.00;93370.81;2112528;28;20021;-83
2021/11/08 02:59:46;;;;;;;4.28;2.17;;;;;;;1.34;100.00;93371.88;2112814;28;20035;-83
2021/11/08 03:00:47;;;;;;;6.25;3.25;;;;;;;1.32;100.00;93374.09;2112427;28;20020;-86
2021/11/08 03:01:49;;;;;;;7.40;2.10;;;;;;;1.32;100.00;93376.75;2112818;27;20089;-84
2021/11/08 03:02:51;;;;;;;6.30;2.00;;;;;;;1.20;100.00;93375.03;2108381;28;20020;-84
2021/11/08 03:03:56;;;;;;;5.30;1.92;;;;;;;1.23;100.00;93369.06;2112428;28;20020;-83
2021/11/08 03:04:56;;;;;;;2.90;1.65;;;;;;;1.31;100.00;93366.53;2110323;28;20471;-85
2021/11/08 03:06:03;;;;;;;5.43;2.10;;;;;;;1.25;100.00;93363.44;2112441;28;20035;-83
2021/11/08 03:07:05;;;;;;;4.18;2.10;;;;;;;1.22;100.00;93358.88;2109326;28;20027;-83
2021/11/08 03:08:09;;;;;;;7.63;1.88;;;;;;;1.22;100.00;93367.53;2114219;28;20027;-84
2021/11/08 03:09:17;;;;;;;4.93;2.03;;;;;;;1.17;100.00;93361.78;2114924;28;20094;-83
2021/11/08 03:10:21;;;;;;;4.95;2.08;;;;;;;1.22;100.00;93364.13;2111593;28;20086;-82
2021/11/08 03:11:23;;;;;;;6.50;1.88;;;;;;;1.18;100.00;93366.69;2108751;28;20023;-82
2021/11/08 03:12:28;;;;;;;2.78;1.83;;;;;;;1.09;100.00;93360.16;2116619;28;20377;-84
2021/11/08 03:13:33;;;;;;;4.80;2.20;;;;;;;1.07;100.00;93357.13;2117469;28;20015;-82
2021/11/08 03:14:37;;;;;;;3.78;2.00;;;;;;;0.96;100.00;93356.91;2120904;28;20061;-85
2021/11/08 03:16:53;;;;;;;4.85;1.90;;;;;;;0.87;100.00;93365.03;2112529;28;20028;-83
2021/11/08 03:18:05;;;;;;;5.75;2.03;;;;;;;0.75;100.00;93363.31;2112174;28;20057;-83
2021/11/08 03:19:23;;;;;;;8.40;2.30;;;;;;;0.73;100.00;93362.13;2112523;28;20100;-82
2021/11/08 03:20:24;;;;;;;7.97;2.22;;;;;;;0.70;100.00;93363.59;2107340;28;20020;-83
2021/11/08 03:21:27;;;;;;;3.08;2.17;;;;;;;0.69;100.00;93363.94;2104475;28;20024;-83
2021/11/08 03:22:32;;;;;;;3.20;2.17;;;;;;;0.64;100.00;93367.59;2096673;28;20066;-84
2021/11/08 03:23:33;;;;;;;5.63;2.08;;;;;;;0.55;100.00;93372.31;2096759;28;20443;-83
2021/11/08 03:25:49;;;;;;;4.07;2.20;;;;;;;0.56;100.00;93379.09;2100438;28;20381;-83
2021/11/08 03:26:54;;;;;;;4.07;2.13;;;;;;;0.51;100.00;93374.09;2107872;28;20028;-82
2021/11/08 03:27:56;;;;;;;3.25;1.50;;;;;;;0.46;100.00;93382.25;2105210;28;20027;-86
2021/11/08 03:28:58;;;;;;;5.28;1.95;;;;;;;0.38;100.00;93375.34;2115402;28;20455;-85
2021/11/08 03:30:00;;;;;;;5.10;2.08;;;;;;;0.40;100.00;93384.41;2123373;27;20471;-85
2021/11/08 03:31:01;;;;;;;3.63;1.80;;;;;;;0.47;100.00;93381.91;2112782;28;20022;-84
2021/11/08 03:32:04;;;;;;;3.47;1.83;;;;;;;0.33;100.00;93378.25;2098276;28;20550;-82
2021/11/08 03:33:07;;;;;;;3.22;2.15;;;;;;;0.37;100.00;93384.34;2090324;28;20021;-83
2021/11/08 03:34:09;;;;;;;5.10;2.45;;;;;;;0.22;100.00;93381.41;2098863;28;20023;-83
2021/11/08 03:35:12;;;;;;;4.45;2.08;;;;;;;0.30;100.00;93376.28;2106896;28;20422;-82
2021/11/08 03:36:13;;;;;;;5.97;2.00;;;;;;;0.33;100.00;93386.13;2113556;27;20474;-83
2021/11/08 03:37:14;;;;;;;3.78;1.90;;;;;;;0.23;100.00;93382.94;2106500;28;20099;-83
2021/11/08 03:38:16;;;;;;;4.22;2.40;;;;;;;0.20;100.00;93380.22;2094025;28;20512;-83
2021/11/08 03:39:18;;;;;;;4.47;2.45;;;;;;;0.22;100.00;93383.25;2089543;28;20027;-83
2021/11/08 03:40:23;;;;;;;7.50;2.53;;;;;;;0.14;100.00;93384.22;2098590;28;20023;-84
2021/11/08 03:41:24;;;;;;;6.60;2.25;;;;;;;0.16;100.00;93384.63;2107286;28;20107;-86
2021/11/08 03:42:25;;;;;;;3.05;2.08;;;;;;;0.06;100.00;93378.06;2102266;28;20016;-84
2021/11/08 03:43:26;;;;;;;9.38;2.35;;;;;;;0.13;100.00;93380.06;2106131;28;20024;-82
2021/11/08 03:44:28;;;;;;;3.80;1.83;;;;;;;0.15;100.00;93381.25;2096405;28;20031;-84
2021/11/08 03:45:30;;;;;;;7.25;2.42;;;;;;;0.14;100.00;93382.38;2091188;28;20029;-82
2021/11/08 03:46:31;;;;;;;5.93;2.20;;;;;;;0.14;100.00;93386.88;2103754;28;20024;-83
2021/11/08 03:47:32;;;;;;;9.13;2.65;;;;;;;0.12;100.00;93383.81;2114858;28;20069;-85
2021/11/08 03:48:34;;;;;;;9.23;2.60;;;;;;;0.05;100.00;93381.78;2112804;28;20015;-83
2021/11/08 03:49:35;;;;;;;6.65;2.38;;;;;;;0.01;100.00;93388.06;2094862;28;20122;-85
2021/11/08 03:50:38;;;;;;;4.20;2.17;;;;;;;-0.10;100.00;93379.94;2097712;28;20154;-84
2021/11/08 03:51:39;;;;;;;4.30;2.17;;;;;;;-0.06;100.00;93378.91;2102662;28;20086;-83
2021/11/08 03:52:40;;;;;;;7.03;2.53;;;;;;;0.16;100.00;93392.53;2096092;28;20454;-84
2021/11/08 03:53:41;;;;;;;4.70;2.35;;;;;;;0.07;100.00;93391.94;2098189;28;20417;-83
2021/11/08 03:54:42;;;;;;;4.13;2.28;;;;;;;0.02;100.00;93386.97;2107524;28;20065;-84
2021/11/08 03:55:45;;;;;;;4.68;2.38;;;;;;;-0.15;100.00;93388.84;2100331;28;20028;-81
2021/11/08 03:56:46;;;;;;;4.80;2.33;;;;;;;-0.10;100.00;93393.84;2097264;28;20032;-82
2021/11/08 03:57:48;;;;;;;5.18;2.65;;;;;;;-0.23;100.00;93395.03;2096812;28;20107;-84
2021/11/08 03:58:50;;;;;;;8.40;3.70;;;;;;;-0.28;100.00;93393.44;2098593;28;20417;-83
2021/11/08 03:59:51;;;;;;;5.60;2.83;;;;;;;-0.30;100.00;93406.16;2105126;28;20012;-86
2021/11/08 04:00:52;;;;;;;3.72;2.15;;;;;;;-0.24;100.00;93406.66;2106089;28;20027;-84
2021/11/08 04:01:53;;;;;;;4.68;2.70;;;;;;;-0.26;100.00;93401.75;2112751;28;20016;-83
2021/11/08 04:02:56;;;;;;;5.60;2.17;;;;;;;-0.32;100.00;93407.59;2112493;28;20495;-84
2021/11/08 04:03:58;;;;;;;6.50;2.58;;;;;;;-0.30;100.00;93405.41;2097052;28;20107;-81
2021/11/08 04:05:01;;;;;;;3.58;2.13;;;;;;;-0.35;100.00;93406.41;2097956;28;20032;-83
2021/11/08 04:06:03;;;;;;;5.68;2.38;;;;;;;-0.41;100.00;93401.75;2110080;28;20427;-86
2021/11/08 04:07:04;;;;;;;4.25;1.98;;;;;;;-0.45;100.00;93395.63;2101198;28;20465;-84
2021/11/08 04:08:09;;;;;;;6.88;2.30;;;;;;;-0.39;100.00;93402.94;2105471;28;20074;-84
2021/11/08 04:09:12;;;;;;;2.65;2.03;;;;;;;-0.37;100.00;93400.72;2115381;28;20049;-84
2021/11/08 04:10:15;;;;;;;3.90;2.22;;;;;;;-0.47;100.00;93409.13;2115599;28;20016;-83
2021/11/08 04:11:17;;;;;;;4.90;2.35;;;;;;;-0.46;100.00;93400.13;2115349;28;20483;-86
2021/11/08 04:12:18;;;;;;;9.07;2.22;;;;;;;-0.41;100.00;93401.75;2112653;28;20025;-85
2021/11/08 04:13:28;;;;;;;7.63;2.83;;;;;;;-0.55;100.00;93397.66;2097882;28;20029;-85
2021/11/08 04:14:28;;;;;;;4.40;2.33;;;;;;;-0.60;100.00;93395.31;2102012;28;20435;-84
2021/11/08 04:15:35;;;;;;;4.80;2.40;;;;;;;-0.56;100.00;93395.41;2094111;28;20077;-83
2021/11/08 04:16:39;;;;;;;4.00;1.75;;;;;;;-0.56;100.00;93396.16;2106168;28;20016;-84
2021/11/08 04:17:44;;;;;;;8.10;2.67;;;;;;;-0.55;100.00;93391.66;2104054;28;20020;-83
2021/11/08 04:18:49;;;;;;;3.90;2.08;;;;;;;-0.55;100.00;93394.28;2097656;28;20021;-84
2021/11/08 04:19:52;;;;;;;6.32;1.90;;;;;;;-0.62;100.00;93400.13;2106731;28;20023;-86
2021/11/08 04:20:55;;;;;;;4.60;2.15;;;;;;;-0.72;100.00;93400.63;2104335;28;20492;-83
2021/11/08 04:22:00;;;;;;;6.15;2.15;;;;;;;-0.69;100.00;93397.34;2098635;28;20104;-82
2021/11/08 04:23:02;;;;;;;3.78;2.38;;;;;;;-0.65;100.00;93390.31;2102654;28;20036;-83
2021/11/08 04:24:04;;;;;;;4.80;2.40;;;;;;;-0.77;100.00;93388.50;2114082;28;20016;-84
2021/11/08 04:25:06;;;;;;;7.40;2.17;;;;;;;-0.77;100.00;93399.00;2104083;28;20077;-84
2021/11/08 04:26:09;;;;;;;7.68;2.65;;;;;;;-0.79;100.00;93395.19;2104348;28;20534;-85
2021/11/08 04:27:10;;;;;;;5.30;2.75;;;;;;;-0.74;100.00;93394.19;2100020;28;20016;-81
2021/11/08 04:28:11;;;;;;;8.75;2.42;;;;;;;-0.74;100.00;93388.94;2099866;28;20028;-85
2021/11/08 04:29:13;;;;;;;6.50;2.70;;;;;;;-0.78;100.00;93396.72;2110304;28;20019;-83
2021/11/08 04:30:15;;;;;;;4.75;2.42;;;;;;;-0.81;100.00;93392.16;2112912;28;20023;-84
2021/11/08 04:31:16;;;;;;;9.07;2.75;;;;;;;-0.87;100.00;93404.00;2096857;28;20378;-85
2021/11/08 04:32:18;;;;;;;4.47;2.60;;;;;;;-0.94;100.00;93399.31;2106185;28;20492;-86
2021/11/08 04:34:30;;;;;;;5.28;2.47;;;;;;;-0.95;100.00;93405.66;2113377;28;20019;-85
2021/11/08 04:42:59;;;;;;;4.97;2.50;;;;;;;-0.88;100.00;93400.63;2114304;28;20020;-82
2021/11/08 04:44:51;;;;;;;3.35;2.55;;;;;;;-0.92;100.00;93410.25;2110787;28;20466;-82
2021/11/08 04:53:09;;;;;;;6.03;2.63;;;;;;;-1.02;100.00;93394.97;2088612;28;20032;-82
2021/11/08 05:27:54;;;;;;;6.90;3.05;;;;;;;-1.64;100.00;93406.78;2123006;27;20022;-81
2021/11/08 05:30:14;;;;;;;5.28;2.75;;;;;;;-1.52;100.00;93409.38;2098848;28;20024;-85
2021/11/08 05:31:15;;;;;;;9.40;3.30;;;;;;;-1.49;100.00;93415.78;2097331;28;20727;-83
2021/11/08 05:32:16;;;;;;;4.85;2.88;;;;;;;-1.49;100.00;93410.56;2103719;28;20062;-84
2021/11/08 05:33:17;;;;;;;7.25;3.03;;;;;;;-1.53;100.00;93403.38;2110031;28;20024;-83
2021/11/08 05:34:19;;;;;;;5.20;2.58;;;;;;;-1.50;100.00;93401.19;2114130;28;20674;-82
2021/11/08 05:35:20;;;;;;;7.05;2.95;;;;;;;-1.52;100.00;93406.75;2110771;28;20052;-83
2021/11/08 05:36:21;;;;;;;8.07;3.15;;;;;;;-1.56;100.00;93404.03;2102785;28;20024;-84
2021/11/08 05:37:23;;;;;;;5.18;2.83;;;;;;;-1.54;100.00;93406.31;2093297;28;20104;-84
2021/11/08 05:38:25;;;;;;;5.60;2.90;;;;;;;-1.66;100.00;93419.47;2101845;28;20016;-84
2021/11/08 05:39:26;;;;;;;5.03;2.88;;;;;;;-1.58;100.00;93414.09;2103578;28;20020;-86
2021/11/08 05:40:32;;;;;;;7.25;3.13;;;;;;;-1.56;100.00;93424.25;2109775;28;20048;-85
2021/11/08 05:41:35;;;;;;;5.43;2.67;;;;;;;-1.60;100.00;93413.66;2103324;28;20027;-86
2021/11/08 05:42:36;;;;;;;8.95;2.70;;;;;;;-1.44;100.00;93420.84;2105009;28;20408;-82
2021/11/08 05:43:37;;;;;;;4.60;3.00;;;;;;;-1.46;100.00;93415.16;2105103;28;20026;-84
2021/11/08 05:44:40;;;;;;;5.63;2.58;;;;;;;-1.49;100.00;93421.03;2102002;28;20408;-82
2021/11/08 05:45:41;;;;;;;4.78;3.08;;;;;;;-1.60;100.00;93411.03;2103852;28;20024;-83
2021/11/08 05:46:43;;;;;;;5.63;2.45;;;;;;;-1.63;100.00;93419.53;2103820;28;20483;-84
2021/11/08 05:47:46;;;;;;;7.93;3.17;;;;;;;-1.67;100.00;93413.44;2105503;28;20028;-85
2021/11/08 05:48:47;;;;;;;7.22;3.08;;;;;;;-1.64;100.00;93412.78;2105808;28;20039;-84
2021/11/08 05:49:48;;;;;;;4.65;2.80;;;;;;;-1.52;100.00;93415.38;2099846;28;20024;-83
2021/11/08 05:50:49;;;;;;;5.03;2.70;;;;;;;-1.59;100.00;93423.03;2094958;28;20058;-85
2021/11/08 05:51:50;;;;;;;4.13;2.40;;;;;;;-1.65;100.00;93418.38;2086302;28;20033;-84